Time;durP1;ratioP1;P1;durP2;ratioP2;P2;SDS_P1;SDS_P2;PMS_P1;PMS_P2;Temp;Humidity;BMP_temperature;BMP_pressure;BME280_temperature;BME280_humidity;BME280_pressure;Samples;Min_cycle;Max_cycle;Signal;HPM_P1;HPM_P2
2023/03/05 00:01:09;;;;;;;44.33;7.80;;;;;;;;;;5037776;28;20034;-58
2023/03/05 00:03:36;;;;;;;38.88;7.13;;;;;;;;;;5037751;28;20509;-57
2023/03/05 00:06:02;;;;;;;27.25;5.35;;;;;;;;;;5039505;28;20071;-54
2023/03/05 00:08:29;;;;;;;41.70;6.05;;;;;;;;;;5040102;28;20566;-55
2023/03/05 00:10:56;;;;;;;43.13;6.82;;;;;;;;;;5040244;28;20057;-52
2023/03/05 00:13:23;;;;;;;37.30;7.07;;;;;;;;;;5041098;28;20565;-58
2023/03/05 00:15:51;;;;;;;58.10;7.40;;;;;;;;;;5039019;28;20494;-58
2023/03/05 00:18:18;;;;;;;53.50;7.50;;;;;;;;;;5043134;28;20041;-58
2023/03/05 00:20:45;;;;;;;43.00;7.57;;;;;;;;;;5040804;28;20112;-57
2023/03/05 00:23:11;;;;;;;65.00;8.73;;;;;;;;;;5038286;28;20041;-59
2023/03/05 00:25:39;;;;;;;36.67;6.47;;;;;;;;;;5035059;28;20045;-59
2023/03/05 00:28:05;;;;;;;46.70;8.18;;;;;;;;;;5042172;28;20041;-56
2023/03/05 00:30:32;;;;;;;38.40;7.10;;;;;;;;;;5039954;28;20630;-55
2023/03/05 00:32:59;;;;;;;29.40;6.15;;;;;;;;;;5037572;28;20037;-54
2023/03/05 00:35:26;;;;;;;31.05;5.90;;;;;;;;;;5042487;28;20037;-53
2023/03/05 00:37:52;;;;;;;63.83;8.35;;;;;;;;;;5038691;28;20099;-58
2023/03/05 00:40:19;;;;;;;39.67;6.38;;;;;;;;;;5037974;28;20486;-58
2023/03/05 00:42:46;;;;;;;42.45;6.85;;;;;;;;;;5040114;28;20040;-59
2023/03/05 00:45:12;;;;;;;41.70;6.47;;;;;;;;;;5039459;28;20132;-56
2023/03/05 00:47:39;;;;;;;51.25;7.68;;;;;;;;;;5054519;28;20045;-57
2023/03/05 00:50:06;;;;;;;44.20;6.80;;;;;;;;;;5038663;28;20128;-54
2023/03/05 00:52:32;;;;;;;28.27;5.35;;;;;;;;;;5034653;28;20406;-56
2023/03/05 00:54:59;;;;;;;49.05;7.38;;;;;;;;;;5039136;28;20029;-58
2023/03/05 00:57:26;;;;;;;22.20;4.55;;;;;;;;;;5033210;28;20033;-58
2023/03/05 00:59:52;;;;;;;48.40;5.90;;;;;;;;;;5040474;28;20049;-58
2023/03/05 01:02:19;;;;;;;59.33;8.13;;;;;;;;;;5037473;28;20056;-57
2023/03/05 01:04:46;;;;;;;65.72;7.75;;;;;;;;;;5037130;28;20055;-56
2023/03/05 01:07:13;;;;;;;31.38;5.18;;;;;;;;;;5036829;28;20453;-53
2023/03/05 01:09:40;;;;;;;78.43;8.10;;;;;;;;;;5035063;28;20048;-48
2023/03/05 01:12:07;;;;;;;41.35;6.45;;;;;;;;;;5035811;28;20040;-50
2023/03/05 01:14:34;;;;;;;31.90;4.95;;;;;;;;;;5036754;28;20099;-51
2023/03/05 01:17:01;;;;;;;61.88;7.15;;;;;;;;;;5052922;28;20038;-52
2023/03/05 01:19:27;;;;;;;43.72;6.03;;;;;;;;;;5038624;28;20556;-51
2023/03/05 01:21:54;;;;;;;50.63;5.90;;;;;;;;;;5037157;28;20493;-52
2023/03/05 01:24:21;;;;;;;74.20;8.25;;;;;;;;;;5054996;28;20406;-49
2023/03/05 01:26:48;;;;;;;61.95;7.85;;;;;;;;;;5038334;28;20076;-52
2023/03/05 01:29:14;;;;;;;51.25;8.02;;;;;;;;;;5037947;28;20095;-53
2023/03/05 01:31:41;;;;;;;99.97;11.13;;;;;;;;;;5039017;28;20566;-51
2023/03/05 01:34:07;;;;;;;54.53;8.27;;;;;;;;;;5043797;28;20095;-50
2023/03/05 01:36:34;;;;;;;39.63;6.68;;;;;;;;;;5040894;28;20494;-50
2023/03/05 01:39:01;;;;;;;54.33;7.10;;;;;;;;;;5040555;28;20500;-52
2023/03/05 01:41:29;;;;;;;31.60;6.15;;;;;;;;;;5045210;28;20044;-54
2023/03/05 01:43:56;;;;;;;44.95;7.30;;;;;;;;;;5040273;28;20539;-52
2023/03/05 01:46:29;;;;;;;65.55;8.25;;;;;;;;;;5042671;28;20041;-51
2023/03/05 01:49:01;;;;;;;35.45;7.53;;;;;;;;;;5041601;28;20052;-53
2023/03/05 01:51:30;;;;;;;36.88;6.78;;;;;;;;;;5040659;28;20044;-53
2023/03/05 01:53:57;;;;;;;36.28;6.82;;;;;;;;;;5043110;28;20038;-52
2023/03/05 01:56:25;;;;;;;46.50;6.65;;;;;;;;;;5041541;28;20037;-52
2023/03/05 01:58:52;;;;;;;51.45;7.88;;;;;;;;;;5043652;28;20053;-51
2023/03/05 02:01:18;;;;;;;43.05;6.72;;;;;;;;;;5042195;28;20041;-49
2023/03/05 02:03:46;;;;;;;64.40;8.27;;;;;;;;;;5038272;28;20061;-52
2023/03/05 02:06:14;;;;;;;60.03;7.85;;;;;;;;;;5044523;28;20045;-48
2023/03/05 02:08:40;;;;;;;46.95;7.13;;;;;;;;;;5041843;28;20072;-48
2023/03/05 02:11:07;;;;;;;105.40;11.27;;;;;;;;;;5035224;28;20057;-59
2023/03/05 02:13:37;;;;;;;30.40;6.18;;;;;;;;;;5037005;28;20065;-58
2023/03/05 02:16:03;;;;;;;34.45;6.75;;;;;;;;;;5045142;28;20109;-54
2023/03/05 02:18:30;;;;;;;31.27;5.88;;;;;;;;;;5041954;28;20043;-57
2023/03/05 02:20:56;;;;;;;39.00;7.53;;;;;;;;;;5039915;28;20069;-58
2023/03/05 02:23:25;;;;;;;40.08;6.95;;;;;;;;;;5043966;28;20071;-58
2023/03/05 02:25:51;;;;;;;58.90;7.95;;;;;;;;;;5041947;28;20041;-59
2023/03/05 02:28:22;;;;;;;46.83;8.07;;;;;;;;;;5038820;28;20140;-58
2023/03/05 02:30:48;;;;;;;36.92;8.27;;;;;;;;;;5042379;28;20033;-58
2023/03/05 02:33:15;;;;;;;37.58;7.10;;;;;;;;;;5041783;28;20087;-58
2023/03/05 02:35:42;;;;;;;48.35;8.55;;;;;;;;;;5040793;28;20042;-57
2023/03/05 02:38:09;;;;;;;43.45;7.13;;;;;;;;;;5042611;28;20398;-60
2023/03/05 02:40:36;;;;;;;41.53;7.78;;;;;;;;;;5044043;28;20399;-59
2023/03/05 02:43:04;;;;;;;40.45;7.72;;;;;;;;;;5024915;28;20041;-59
2023/03/05 02:45:30;;;;;;;26.70;6.07;;;;;;;;;;5038431;28;20129;-57
2023/03/05 02:47:57;;;;;;;43.10;7.53;;;;;;;;;;5044676;28;20049;-55
2023/03/05 02:50:25;;;;;;;41.38;7.47;;;;;;;;;;5040364;28;20080;-57
2023/03/05 02:52:51;;;;;;;71.20;9.45;;;;;;;;;;5038965;28;20466;-56
2023/03/05 02:55:19;;;;;;;35.33;6.97;;;;;;;;;;5053643;28;20045;-53
2023/03/05 02:57:45;;;;;;;45.55;7.40;;;;;;;;;;5042915;28;20406;-58
2023/03/05 03:00:12;;;;;;;43.85;7.95;;;;;;;;;;5040418;28;20052;-55
2023/03/05 03:02:39;;;;;;;37.22;6.97;;;;;;;;;;5041469;28;20037;-58
2023/03/05 03:05:05;;;;;;;34.67;7.97;;;;;;;;;;5040911;28;20041;-58
2023/03/05 03:07:34;;;;;;;43.42;8.35;;;;;;;;;;5043004;28;20487;-56
2023/03/05 03:10:01;;;;;;;40.70;7.32;;;;;;;;;;5040494;28;20041;-58
2023/03/05 03:12:28;;;;;;;41.20;6.85;;;;;;;;;;5043400;28;20040;-60
2023/03/05 03:14:54;;;;;;;44.53;7.57;;;;;;;;;;5041282;28;20108;-57
2023/03/05 03:17:21;;;;;;;36.78;7.38;;;;;;;;;;5037720;28;20749;-58
2023/03/05 03:19:47;;;;;;;50.40;8.77;;;;;;;;;;5039596;28;20045;-59
2023/03/05 03:22:14;;;;;;;61.20;8.95;;;;;;;;;;5042541;28;20045;-57
2023/03/05 03:24:42;;;;;;;45.10;7.93;;;;;;;;;;5041972;28;20049;-56
2023/03/05 03:27:08;;;;;;;51.58;8.48;;;;;;;;;;5040849;28;20045;-57
2023/03/05 03:29:35;;;;;;;54.92;8.43;;;;;;;;;;5044038;28;20473;-56
2023/03/05 03:32:02;;;;;;;44.53;8.70;;;;;;;;;;5042217;28;20084;-56
2023/03/05 03:34:28;;;;;;;27.02;6.45;;;;;;;;;;5040259;28;20445;-59
2023/03/05 03:36:55;;;;;;;57.63;8.35;;;;;;;;;;5040409;28;20047;-57
2023/03/05 03:39:22;;;;;;;37.55;7.00;;;;;;;;;;5039081;28;20029;-58
2023/03/05 03:41:50;;;;;;;62.00;9.82;;;;;;;;;;5042160;28;20037;-60
2023/03/05 03:44:17;;;;;;;80.82;10.70;;;;;;;;;;5040685;28;20045;-58
2023/03/05 03:46:45;;;;;;;49.90;8.82;;;;;;;;;;5040239;28;20121;-58
2023/03/05 03:49:15;;;;;;;45.00;7.55;;;;;;;;;;5039442;28;20041;-59
2023/03/05 03:51:42;;;;;;;52.50;8.18;;;;;;;;;;5041015;28;20090;-57
2023/03/05 03:54:08;;;;;;;43.10;7.47;;;;;;;;;;5039308;28;20116;-58
2023/03/05 03:56:35;;;;;;;33.55;7.10;;;;;;;;;;5034904;28;20043;-57
2023/03/05 03:59:02;;;;;;;47.97;7.93;;;;;;;;;;5040259;28;20040;-58
2023/03/05 04:01:28;;;;;;;29.52;6.82;;;;;;;;;;5038814;28;20052;-60
2023/03/05 04:03:55;;;;;;;35.78;7.22;;;;;;;;;;5043103;28;20052;-55
2023/03/05 04:06:21;;;;;;;58.40;9.25;;;;;;;;;;5035630;28;20049;-56
2023/03/05 04:08:48;;;;;;;42.15;7.03;;;;;;;;;;5040814;28;20068;-58
2023/03/05 04:11:14;;;;;;;35.22;7.18;;;;;;;;;;5040452;28;20045;-55
2023/03/05 04:13:41;;;;;;;60.25;9.52;;;;;;;;;;5040612;28;20041;-57
2023/03/05 04:16:07;;;;;;;40.42;7.82;;;;;;;;;;5039366;28;20049;-59
2023/03/05 04:18:34;;;;;;;30.15;6.80;;;;;;;;;;5039798;28;20057;-59
2023/03/05 04:21:00;;;;;;;50.45;8.20;;;;;;;;;;5041358;28;20038;-56
2023/03/05 04:23:27;;;;;;;38.10;7.55;;;;;;;;;;5040381;28;20486;-56
2023/03/05 04:25:54;;;;;;;55.67;8.48;;;;;;;;;;5039128;28;20492;-54
2023/03/05 04:28:20;;;;;;;58.00;8.57;;;;;;;;;;5041198;28;20052;-55
2023/03/05 04:30:47;;;;;;;46.65;8.05;;;;;;;;;;5041314;28;20045;-61
2023/03/05 04:33:14;;;;;;;40.92;7.45;;;;;;;;;;5036611;28;20041;-58
2023/03/05 04:35:40;;;;;;;61.72;8.43;;;;;;;;;;5034291;28;20094;-57
2023/03/05 04:38:07;;;;;;;42.97;7.32;;;;;;;;;;5039328;28;20107;-57
2023/03/05 04:40:34;;;;;;;43.08;8.18;;;;;;;;;;5040054;28;20205;-59
2023/03/05 04:43:00;;;;;;;54.35;9.10;;;;;;;;;;5037311;28;20528;-58
2023/03/05 04:45:27;;;;;;;25.42;5.75;;;;;;;;;;5040084;28;20091;-59
2023/03/05 04:47:53;;;;;;;36.60;7.35;;;;;;;;;;5041477;28;20506;-57
2023/03/05 04:50:20;;;;;;;52.90;8.13;;;;;;;;;;5038937;28;20135;-58
2023/03/05 04:52:47;;;;;;;57.13;9.40;;;;;;;;;;5040943;28;20091;-58
2023/03/05 04:55:14;;;;;;;47.10;8.50;;;;;;;;;;5038427;28;20037;-54
2023/03/05 04:57:41;;;;;;;45.60;7.40;;;;;;;;;;5038603;28;20069;-58
2023/03/05 05:00:13;;;;;;;41.78;7.47;;;;;;;;;;5043744;28;20029;-58
2023/03/05 05:02:43;;;;;;;34.53;6.97;;;;;;;;;;5039911;28;20036;-60
2023/03/05 05:05:18;;;;;;;61.50;8.93;;;;;;;;;;5037514;28;20041;-57
2023/03/05 05:07:44;;;;;;;56.78;9.00;;;;;;;;;;5034189;28;20052;-59
2023/03/05 05:10:11;;;;;;;43.40;7.22;;;;;;;;;;5041232;28;20068;-58
2023/03/05 05:12:38;;;;;;;52.60;7.85;;;;;;;;;;5036903;28;20501;-58
2023/03/05 05:15:06;;;;;;;37.85;6.95;;;;;;;;;;5034969;28;20052;-54
2023/03/05 05:17:32;;;;;;;38.65;7.93;;;;;;;;;;5042177;28;20077;-59
2023/03/05 05:20:00;;;;;;;81.82;12.00;;;;;;;;;;5038813;28;20095;-54
2023/03/05 05:22:27;;;;;;;35.72;7.13;;;;;;;;;;5039687;28;20037;-57
2023/03/05 05:24:54;;;;;;;35.42;7.55;;;;;;;;;;5038988;28;20054;-57
2023/03/05 05:27:20;;;;;;;65.38;8.60;;;;;;;;;;5038995;28;20596;-57
2023/03/05 05:29:51;;;;;;;46.13;7.60;;;;;;;;;;5040462;28;20041;-60
2023/03/05 05:32:19;;;;;;;62.15;9.43;;;;;;;;;;5035317;28;20450;-60
2023/03/05 05:34:45;;;;;;;65.30;9.25;;;;;;;;;;5038064;28;20072;-55
2023/03/05 05:37:12;;;;;;;45.58;7.75;;;;;;;;;;5040582;28;20501;-59
2023/03/05 05:39:39;;;;;;;52.58;9.05;;;;;;;;;;5038803;28;20509;-58
2023/03/05 05:42:05;;;;;;;60.75;8.85;;;;;;;;;;5041945;28;20056;-56
2023/03/05 05:44:33;;;;;;;26.23;6.60;;;;;;;;;;5033979;28;20042;-59
2023/03/05 05:47:00;;;;;;;65.03;9.27;;;;;;;;;;5038247;28;20528;-60
2023/03/05 05:49:27;;;;;;;54.35;9.20;;;;;;;;;;5038016;28;20049;-59
2023/03/05 05:51:53;;;;;;;38.83;9.10;;;;;;;;;;5041199;28;20106;-55
2023/03/05 05:54:20;;;;;;;40.53;8.32;;;;;;;;;;5037529;28;20048;-56
2023/03/05 05:56:46;;;;;;;71.32;11.15;;;;;;;;;;5036431;28;20041;-59
2023/03/05 05:59:13;;;;;;;43.33;9.88;;;;;;;;;;5039196;28;20037;-60
2023/03/05 06:01:39;;;;;;;47.97;11.52;;;;;;;;;;5040385;28;20045;-59
2023/03/05 06:04:06;;;;;;;64.60;12.45;;;;;;;;;;5037806;28;20048;-60
2023/03/05 06:06:33;;;;;;;38.13;9.70;;;;;;;;;;5038608;28;20069;-60
2023/03/05 06:09:00;;;;;;;39.70;8.82;;;;;;;;;;5040110;28;20077;-54
2023/03/05 06:11:27;;;;;;;49.92;9.52;;;;;;;;;;5037249;28;20040;-55
2023/03/05 06:13:53;;;;;;;56.53;10.27;;;;;;;;;;5036299;28;20049;-55
2023/03/05 06:16:22;;;;;;;40.90;8.23;;;;;;;;;;5041474;28;20049;-56
2023/03/05 06:18:50;;;;;;;54.25;8.52;;;;;;;;;;5039622;28;20041;-52
2023/03/05 06:21:17;;;;;;;43.63;8.48;;;;;;;;;;5035830;28;20038;-56
2023/03/05 06:23:44;;;;;;;35.65;6.63;;;;;;;;;;5044398;28;20033;-55
2023/03/05 06:26:13;;;;;;;55.20;8.70;;;;;;;;;;5037556;28;20532;-55
2023/03/05 06:28:39;;;;;;;38.88;6.68;;;;;;;;;;5041203;28;20044;-54
2023/03/05 06:31:07;;;;;;;28.85;6.55;;;;;;;;;;5038334;28;20052;-54
2023/03/05 06:33:34;;;;;;;48.67;7.88;;;;;;;;;;5043423;28;20107;-53
2023/03/05 06:36:08;;;;;;;31.60;6.32;;;;;;;;;;5042584;28;20049;-59
2023/03/05 06:38:35;;;;;;;30.25;7.78;;;;;;;;;;5042265;28;20061;-57
2023/03/05 06:41:08;;;;;;;47.88;8.00;;;;;;;;;;5041303;28;20241;-58
2023/03/05 06:43:36;;;;;;;33.08;6.57;;;;;;;;;;5041969;28;20097;-56
2023/03/05 06:46:22;;;;;;;56.55;8.85;;;;;;;;;;5040476;28;20084;-54
2023/03/05 06:48:49;;;;;;;45.67;7.72;;;;;;;;;;5041001;28;20041;-54
2023/03/05 06:51:17;;;;;;;35.35;7.10;;;;;;;;;;5042774;28;20041;-55
2023/03/05 06:53:46;;;;;;;44.47;7.80;;;;;;;;;;5041604;28;20048;-57
2023/03/05 06:56:15;;;;;;;46.53;7.03;;;;;;;;;;5035482;28;20111;-54
2023/03/05 06:58:44;;;;;;;49.10;9.45;;;;;;;;;;5043542;28;20107;-56
2023/03/05 07:01:11;;;;;;;45.45;7.25;;;;;;;;;;5039518;28;20069;-58
2023/03/05 07:03:38;;;;;;;39.53;6.88;;;;;;;;;;5040187;28;20440;-59
2023/03/05 07:06:06;;;;;;;51.75;8.05;;;;;;;;;;5042616;28;20048;-56
2023/03/05 07:08:32;;;;;;;26.80;6.75;;;;;;;;;;5042052;28;20132;-59
2023/03/05 07:10:59;;;;;;;48.10;8.02;;;;;;;;;;5040053;28;20526;-57
2023/03/05 07:13:25;;;;;;;40.97;6.45;;;;;;;;;;5044989;28;20048;-56
2023/03/05 07:15:52;;;;;;;33.45;6.43;;;;;;;;;;5040617;28;20517;-55
2023/03/05 07:18:19;;;;;;;39.17;7.38;;;;;;;;;;5040337;28;20132;-56
2023/03/05 07:20:45;;;;;;;51.63;7.72;;;;;;;;;;5033772;28;20072;-55
2023/03/05 07:23:12;;;;;;;28.25;5.47;;;;;;;;;;5038204;28;20029;-54
2023/03/05 07:25:38;;;;;;;32.30;6.07;;;;;;;;;;5041931;28;20104;-55
2023/03/05 07:28:05;;;;;;;59.95;8.70;;;;;;;;;;5039205;28;20044;-54
2023/03/05 07:30:33;;;;;;;36.95;7.40;;;;;;;;;;5043043;28;20030;-58
2023/03/05 07:33:00;;;;;;;23.52;5.50;;;;;;;;;;5042655;28;20064;-58
2023/03/05 07:35:27;;;;;;;41.90;7.50;;;;;;;;;;5039923;28;20033;-57
2023/03/05 07:37:54;;;;;;;37.33;6.95;;;;;;;;;;5039437;28;20040;-57
2023/03/05 07:40:21;;;;;;;27.45;5.57;;;;;;;;;;5042092;28;20052;-57
2023/03/05 07:42:47;;;;;;;50.00;7.25;;;;;;;;;;5041542;28;20121;-57
2023/03/05 07:45:22;;;;;;;30.63;5.57;;;;;;;;;;5037015;28;20497;-58
2023/03/05 07:47:49;;;;;;;50.85;7.50;;;;;;;;;;5034484;28;20390;-55
2023/03/05 07:50:17;;;;;;;75.20;8.20;;;;;;;;;;5036354;28;20040;-50
2023/03/05 07:52:44;;;;;;;40.03;5.65;;;;;;;;;;5039868;28;20493;-52
2023/03/05 07:55:10;;;;;;;33.95;5.88;;;;;;;;;;5035337;28;20044;-48
2023/03/05 07:57:37;;;;;;;50.40;6.80;;;;;;;;;;5040975;28;20111;-54
2023/03/05 08:00:05;;;;;;;45.40;6.35;;;;;;;;;;5039660;28;20037;-52
2023/03/05 08:02:36;;;;;;;25.90;5.10;;;;;;;;;;5043365;28;20061;-54
2023/03/05 08:05:03;;;;;;;59.30;7.53;;;;;;;;;;5040134;28;20509;-51
2023/03/05 08:07:30;;;;;;;29.88;8.85;;;;;;;;;;5040772;28;20452;-48
2023/03/05 08:09:56;;;;;;;31.70;5.95;;;;;;;;;;5039333;28;20057;-54
2023/03/05 08:12:23;;;;;;;53.13;7.30;;;;;;;;;;5041354;28;20050;-50
2023/03/05 08:14:50;;;;;;;42.10;7.38;;;;;;;;;;5040442;28;20054;-51
2023/03/05 08:17:16;;;;;;;42.13;6.30;;;;;;;;;;5039884;28;20038;-48
2023/03/05 08:19:43;;;;;;;58.90;7.93;;;;;;;;;;5038359;28;20298;-49
2023/03/05 08:22:09;;;;;;;49.00;7.93;;;;;;;;;;5041206;28;20502;-52
2023/03/05 08:24:36;;;;;;;29.08;6.57;;;;;;;;;;5039090;28;20030;-49
2023/03/05 08:27:02;;;;;;;45.38;6.15;;;;;;;;;;5039972;28;20041;-50
2023/03/05 08:29:29;;;;;;;29.90;5.47;;;;;;;;;;5039848;28;20045;-51
2023/03/05 08:31:55;;;;;;;49.45;7.82;;;;;;;;;;5039571;28;20041;-51
2023/03/05 08:34:22;;;;;;;55.78;7.97;;;;;;;;;;5037867;28;20106;-51
2023/03/05 08:36:49;;;;;;;31.58;6.07;;;;;;;;;;5043163;28;20494;-51
2023/03/05 08:39:15;;;;;;;40.28;6.28;;;;;;;;;;5039937;28;20108;-52
2023/03/05 08:41:42;;;;;;;46.35;8.20;;;;;;;;;;5039323;28;20043;-54
2023/03/05 08:44:08;;;;;;;46.67;7.20;;;;;;;;;;5038043;28;20091;-50
2023/03/05 08:46:37;;;;;;;25.25;5.30;;;;;;;;;;5040789;28;20045;-49
2023/03/05 08:49:03;;;;;;;146.20;15.25;;;;;;;;;;5035397;28;20231;-58
2023/03/05 08:51:30;;;;;;;27.10;6.10;;;;;;;;;;5033696;28;20052;-58
2023/03/05 08:53:57;;;;;;;39.25;7.53;;;;;;;;;;5040827;28;20075;-57
2023/03/05 08:56:26;;;;;;;30.10;6.15;;;;;;;;;;5035931;28;20044;-58
2023/03/05 08:58:52;;;;;;;56.75;7.65;;;;;;;;;;5038206;28;20045;-60
2023/03/05 09:01:19;;;;;;;59.95;8.05;;;;;;;;;;5040277;28;20577;-60
2023/03/05 09:03:45;;;;;;;48.22;8.48;;;;;;;;;;5038623;28;20049;-58
2023/03/05 09:06:12;;;;;;;39.92;7.18;;;;;;;;;;5037781;28;20029;-59
2023/03/05 09:08:38;;;;;;;29.92;6.38;;;;;;;;;;5042363;28;20075;-57
2023/03/05 09:11:06;;;;;;;50.17;8.93;;;;;;;;;;5038898;28;20107;-60
2023/03/05 09:13:33;;;;;;;50.75;9.80;;;;;;;;;;5036495;28;20049;-58
2023/03/05 09:16:01;;;;;;;48.70;10.73;;;;;;;;;;5037318;28;20056;-57
2023/03/05 09:18:28;;;;;;;33.47;8.10;;;;;;;;;;5040006;28;20036;-57
2023/03/05 09:20:54;;;;;;;39.33;7.45;;;;;;;;;;5037952;28;20049;-59
2023/03/05 09:23:21;;;;;;;44.65;7.53;;;;;;;;;;5038741;28;20456;-57
2023/03/05 09:25:48;;;;;;;57.70;9.73;;;;;;;;;;5033450;28;20062;-56
2023/03/05 09:28:15;;;;;;;47.03;9.52;;;;;;;;;;5036631;28;20063;-58
2023/03/05 09:30:41;;;;;;;56.00;9.40;;;;;;;;;;5035547;28;20115;-56
2023/03/05 09:33:08;;;;;;;36.17;7.97;;;;;;;;;;5039333;28;20131;-59
2023/03/05 09:35:35;;;;;;;52.05;9.15;;;;;;;;;;5033989;28;20299;-58
2023/03/05 09:38:02;;;;;;;53.90;9.38;;;;;;;;;;5038059;28;20510;-58
2023/03/05 09:40:49;;;;;;;34.83;7.43;;;;;;;;;;5038499;28;20033;-57
2023/03/05 09:43:23;;;;;;;36.20;7.55;;;;;;;;;;5036306;28;20469;-60
2023/03/05 09:46:05;;;;;;;49.75;8.18;;;;;;;;;;5037236;28;20069;-60
2023/03/05 09:48:37;;;;;;;41.35;8.02;;;;;;;;;;5033671;28;20072;-57
2023/03/05 09:51:04;;;;;;;29.40;8.38;;;;;;;;;;5040858;28;20049;-57
2023/03/05 09:53:35;;;;;;;48.17;9.55;;;;;;;;;;5038647;28;20045;-59
2023/03/05 09:56:04;;;;;;;48.42;10.35;;;;;;;;;;5037123;28;20053;-58
2023/03/05 09:58:33;;;;;;;46.75;9.00;;;;;;;;;;5041243;28;20038;-56
2023/03/05 10:01:02;;;;;;;45.08;8.52;;;;;;;;;;5044510;28;20572;-56
2023/03/05 10:03:35;;;;;;;29.98;6.60;;;;;;;;;;5041041;28;20038;-56
2023/03/05 10:06:11;;;;;;;63.95;10.05;;;;;;;;;;5037438;28;20077;-60
2023/03/05 10:08:47;;;;;;;37.92;8.15;;;;;;;;;;5041010;28;20055;-58
2023/03/05 10:11:23;;;;;;;57.78;9.98;;;;;;;;;;5042361;28;20111;-60
2023/03/05 10:13:51;;;;;;;45.53;7.38;;;;;;;;;;5041804;28;20116;-60
2023/03/05 10:16:17;;;;;;;48.03;8.55;;;;;;;;;;5037650;28;20741;-58
2023/03/05 10:18:59;;;;;;;42.53;7.68;;;;;;;;;;5039168;28;20416;-58
2023/03/05 10:21:25;;;;;;;23.80;5.38;;;;;;;;;;5037490;28;20069;-59
2023/03/05 10:23:54;;;;;;;74.70;10.27;;;;;;;;;;5043867;28;20040;-55
2023/03/05 10:26:36;;;;;;;48.45;7.63;;;;;;;;;;5042253;28;20048;-58
2023/03/05 10:29:14;;;;;;;79.82;10.00;;;;;;;;;;5039460;28;20531;-57
2023/03/05 10:31:47;;;;;;;41.72;7.78;;;;;;;;;;5040575;28;20044;-56
2023/03/05 10:34:31;;;;;;;58.00;8.50;;;;;;;;;;5043119;28;20049;-56
2023/03/05 10:37:21;;;;;;;29.52;5.75;;;;;;;;;;5042865;28;20051;-59
2023/03/05 10:39:58;;;;;;;37.42;6.68;;;;;;;;;;5039834;28;20061;-57
2023/03/05 10:42:26;;;;;;;33.17;6.60;;;;;;;;;;5041375;28;20485;-57
2023/03/05 10:44:57;;;;;;;53.47;9.20;;;;;;;;;;5041140;28;20414;-58
2023/03/05 10:47:42;;;;;;;51.50;8.65;;;;;;;;;;5031732;28;20033;-54
2023/03/05 10:50:20;;;;;;;69.53;8.57;;;;;;;;;;5038428;28;20073;-51
2023/03/05 10:52:50;;;;;;;41.60;6.15;;;;;;;;;;5034532;28;20064;-52
2023/03/05 10:55:19;;;;;;;49.00;6.80;;;;;;;;;;5040245;28;20041;-50
2023/03/05 10:57:46;;;;;;;41.50;7.22;;;;;;;;;;5040483;28;20247;-48
2023/03/05 11:00:20;;;;;;;48.65;7.43;;;;;;;;;;5040918;28;20475;-52
2023/03/05 11:02:58;;;;;;;65.85;8.43;;;;;;;;;;5040021;28;20104;-51
2023/03/05 11:05:37;;;;;;;38.08;5.88;;;;;;;;;;5040128;28;20414;-52
2023/03/05 11:08:22;;;;;;;62.42;7.95;;;;;;;;;;5040196;28;20516;-48
2023/03/05 11:11:01;;;;;;;52.97;7.50;;;;;;;;;;5033558;28;20124;-47
2023/03/05 11:13:29;;;;;;;31.40;7.03;;;;;;;;;;5032322;28;20395;-47
2023/03/05 11:15:59;;;;;;;38.50;7.07;;;;;;;;;;5035789;28;20049;-50
2023/03/05 11:18:30;;;;;;;41.67;6.50;;;;;;;;;;5038474;28;20037;-50
2023/03/05 11:21:06;;;;;;;52.88;8.45;;;;;;;;;;5036053;28;20048;-52
2023/03/05 11:23:32;;;;;;;36.92;8.40;;;;;;;;;;5040776;28;20064;-52
2023/03/05 11:26:11;;;;;;;74.03;10.95;;;;;;;;;;5039855;28;20049;-49
2023/03/05 11:28:39;;;;;;;53.28;10.15;;;;;;;;;;5039709;28;20534;-54
2023/03/05 11:31:19;;;;;;;60.35;12.98;;;;;;;;;;5043943;28;20074;-53
2023/03/05 11:33:58;;;;;;;43.58;8.90;;;;;;;;;;5037761;28;20049;-50
2023/03/05 11:36:29;;;;;;;65.90;10.55;;;;;;;;;;5035884;28;20041;-49
2023/03/05 11:39:08;;;;;;;66.82;10.32;;;;;;;;;;5041432;28;20052;-53
2023/03/05 11:41:40;;;;;;;49.13;9.18;;;;;;;;;;5039785;28;20072;-52
2023/03/05 11:44:30;;;;;;;64.50;9.73;;;;;;;;;;5033573;28;20033;-53
2023/03/05 11:47:09;;;;;;;70.65;10.35;;;;;;;;;;5037219;28;20049;-50
2023/03/05 11:49:40;;;;;;;70.68;13.45;;;;;;;;;;5038802;28;20045;-58
2023/03/05 11:52:11;;;;;;;74.75;15.57;;;;;;;;;;5032552;28;20041;-56
2023/03/05 11:54:41;;;;;;;42.33;10.05;;;;;;;;;;5038880;28;20037;-58
2023/03/05 11:57:09;;;;;;;52.17;9.85;;;;;;;;;;5040114;28;20056;-58
2023/03/05 11:59:38;;;;;;;58.55;10.27;;;;;;;;;;5033824;28;20036;-58
2023/03/05 12:02:13;;;;;;;46.78;9.35;;;;;;;;;;5040175;28;20131;-58
2023/03/05 12:04:40;;;;;;;58.33;11.13;;;;;;;;;;5037701;28;20045;-58
2023/03/05 12:07:09;;;;;;;39.03;10.43;;;;;;;;;;5040532;28;20460;-58
2023/03/05 12:09:42;;;;;;;43.13;11.75;;;;;;;;;;5038419;28;20126;-58
2023/03/05 12:12:29;;;;;;;67.03;12.07;;;;;;;;;;5042015;28;20106;-56
2023/03/05 12:15:16;;;;;;;39.33;9.50;;;;;;;;;;5037203;28;20514;-57
2023/03/05 12:17:42;;;;;;;43.45;12.18;;;;;;;;;;5036777;28;20033;-58
2023/03/05 12:20:09;;;;;;;52.17;12.73;;;;;;;;;;5037446;28;20075;-59
2023/03/05 12:22:37;;;;;;;68.03;14.35;;;;;;;;;;5039607;28;20034;-59
2023/03/05 12:25:16;;;;;;;39.58;9.15;;;;;;;;;;5036975;28;20040;-58
2023/03/05 12:27:42;;;;;;;48.45;9.93;;;;;;;;;;5038181;28;20045;-61
2023/03/05 12:30:27;;;;;;;56.38;10.13;;;;;;;;;;5040805;28;20064;-55
2023/03/05 12:32:55;;;;;;;50.60;9.75;;;;;;;;;;5035684;28;20156;-59
2023/03/05 12:35:21;;;;;;;42.75;7.60;;;;;;;;;;5036547;28;20054;-57
2023/03/05 12:37:48;;;;;;;54.83;8.75;;;;;;;;;;5038755;28;20065;-59
2023/03/05 12:40:14;;;;;;;48.55;7.70;;;;;;;;;;5040602;28;20560;-58
2023/03/05 12:42:41;;;;;;;49.67;7.85;;;;;;;;;;5038555;28;20045;-58
2023/03/05 12:45:14;;;;;;;32.10;6.38;;;;;;;;;;5042598;28;20497;-54
2023/03/05 12:47:41;;;;;;;62.85;10.15;;;;;;;;;;5033593;28;20535;-57
2023/03/05 12:50:26;;;;;;;72.22;9.75;;;;;;;;;;5038370;28;20072;-58
2023/03/05 12:53:03;;;;;;;30.38;7.15;;;;;;;;;;5034579;28;20132;-59
2023/03/05 12:55:32;;;;;;;31.70;7.03;;;;;;;;;;5038451;28;20120;-56
2023/03/05 12:58:07;;;;;;;29.88;7.25;;;;;;;;;;5039829;28;20465;-56
2023/03/05 13:00:34;;;;;;;54.20;9.57;;;;;;;;;;5033609;28;20068;-61
2023/03/05 13:03:02;;;;;;;49.67;9.57;;;;;;;;;;5041037;28;20403;-61
2023/03/05 13:05:34;;;;;;;43.75;10.43;;;;;;;;;;5037428;28;20376;-55
2023/03/05 13:08:09;;;;;;;73.65;11.75;;;;;;;;;;5035853;28;20040;-59
2023/03/05 13:10:36;;;;;;;30.13;7.93;;;;;;;;;;5036623;28;20061;-58
2023/03/05 13:13:02;;;;;;;40.67;9.18;;;;;;;;;;5038743;28;20053;-59
2023/03/05 13:15:30;;;;;;;51.53;10.57;;;;;;;;;;5036236;28;20048;-61
2023/03/05 13:18:06;;;;;;;29.85;8.90;;;;;;;;;;5042827;28;20600;-58
2023/03/05 13:20:33;;;;;;;53.45;10.07;;;;;;;;;;5039589;28;20071;-60
2023/03/05 13:23:18;;;;;;;35.53;8.68;;;;;;;;;;5037282;28;20059;-59
2023/03/05 13:25:55;;;;;;;64.75;11.48;;;;;;;;;;5038683;28;20494;-57
2023/03/05 13:28:22;;;;;;;35.13;9.73;;;;;;;;;;5041247;28;20047;-59
2023/03/05 13:30:50;;;;;;;62.38;12.07;;;;;;;;;;5038708;28;20029;-60
2023/03/05 13:33:19;;;;;;;49.70;12.05;;;;;;;;;;5036171;28;20482;-60
2023/03/05 13:35:46;;;;;;;54.85;12.77;;;;;;;;;;5041952;28;20029;-59
2023/03/05 13:38:31;;;;;;;51.45;12.45;;;;;;;;;;5039293;28;20167;-58
2023/03/05 13:41:04;;;;;;;43.42;12.98;;;;;;;;;;5040880;28;20041;-58
2023/03/05 13:43:30;;;;;;;41.35;11.98;;;;;;;;;;5039593;28;20451;-59
2023/03/05 13:45:58;;;;;;;51.28;14.52;;;;;;;;;;5039148;28;20042;-59
2023/03/05 13:48:26;;;;;;;50.20;14.57;;;;;;;;;;5037501;28;20068;-60
2023/03/05 13:50:54;;;;;;;45.20;15.45;;;;;;;;;;5039601;28;20469;-60
2023/03/05 13:53:24;;;;;;;52.22;16.60;;;;;;;;;;5036223;28;20045;-59
2023/03/05 13:55:52;;;;;;;59.65;17.00;;;;;;;;;;5035414;28;20128;-60
2023/03/05 13:58:38;;;;;;;66.80;17.38;;;;;;;;;;5035366;28;20045;-61
2023/03/05 14:01:11;;;;;;;44.22;14.95;;;;;;;;;;5037447;28;20056;-59
2023/03/05 14:03:38;;;;;;;81.13;17.70;;;;;;;;;;5030845;28;20037;-59
2023/03/05 14:06:09;;;;;;;53.90;14.18;;;;;;;;;;5037374;28;20041;-58
2023/03/05 14:08:36;;;;;;;44.58;13.15;;;;;;;;;;5040154;28;20037;-59
2023/03/05 14:11:13;;;;;;;73.63;15.75;;;;;;;;;;5037600;28;20102;-58
2023/03/05 14:13:41;;;;;;;56.10;13.90;;;;;;;;;;5037499;28;20042;-58
2023/03/05 14:16:07;;;;;;;51.25;13.18;;;;;;;;;;5038533;28;20042;-60
2023/03/05 14:18:34;;;;;;;35.30;11.73;;;;;;;;;;5036723;28;20513;-58
2023/03/05 14:21:02;;;;;;;45.17;12.27;;;;;;;;;;5039118;28;20513;-57
2023/03/05 14:23:37;;;;;;;46.03;11.40;;;;;;;;;;5034889;28;20045;-59
2023/03/05 14:26:18;;;;;;;62.25;13.57;;;;;;;;;;5037776;28;20117;-59
2023/03/05 14:28:49;;;;;;;57.08;13.63;;;;;;;;;;5038066;28;20049;-62
2023/03/05 14:31:16;;;;;;;36.95;11.15;;;;;;;;;;5036942;28;20045;-63
2023/03/05 14:33:43;;;;;;;42.05;11.00;;;;;;;;;;5040976;28;20037;-60
2023/03/05 14:36:10;;;;;;;75.95;14.32;;;;;;;;;;5037194;28;20045;-60
2023/03/05 14:38:41;;;;;;;58.97;11.23;;;;;;;;;;5036480;28;20041;-59